sensor_id;sensor_type;location;lat;lon;timestamp;P1;durP1;ratioP1;P2;durP2;ratioP2
13012;SDS011;22580;57.670;12.006;2022-08-14T00:01:14;0.30;;;0.30;;
13012;SDS011;22580;57.670;12.006;2022-08-14T00:03:40;0.30;;;0.30;;
13012;SDS011;22580;57.670;12.006;2022-08-14T00:06:09;0.32;;;0.32;;
13012;SDS011;22580;57.670;12.006;2022-08-14T00:08:36;0.30;;;0.30;;
13012;SDS011;22580;57.670;12.006;2022-08-14T00:11:04;0.40;;;0.40;;
13012;SDS011;22580;57.670;12.006;2022-08-14T00:13:31;0.20;;;0.20;;
13012;SDS011;22580;57.670;12.006;2022-08-14T00:15:58;0.40;;;0.40;;
13012;SDS011;22580;57.670;12.006;2022-08-14T00:18:25;0.45;;;0.45;;
13012;SDS011;22580;57.670;12.006;2022-08-14T00:20:54;0.60;;;0.60;;
13012;SDS011;22580;57.670;12.006;2022-08-14T00:23:22;0.47;;;0.47;;
13012;SDS011;22580;57.670;12.006;2022-08-14T00:25:50;0.60;;;0.60;;
13012;SDS011;22580;57.670;12.006;2022-08-14T00:28:18;0.60;;;0.60;;
13012;SDS011;22580;57.670;12.006;2022-08-14T00:30:50;0.40;;;0.40;;
13012;SDS011;22580;57.670;12.006;2022-08-14T00:33:18;0.38;;;0.38;;
13012;SDS011;22580;57.670;12.006;2022-08-14T00:35:45;0.35;;;0.35;;
13012;SDS011;22580;57.670;12.006;2022-08-14T00:38:12;0.40;;;0.40;;
13012;SDS011;22580;57.670;12.006;2022-08-14T00:40:42;0.40;;;0.40;;
13012;SDS011;22580;57.670;12.006;2022-08-14T00:43:10;0.50;;;0.50;;
13012;SDS011;22580;57.670;12.006;2022-08-14T00:45:37;0.45;;;0.45;;
13012;SDS011;22580;57.670;12.006;2022-08-14T00:48:03;0.30;;;0.30;;
13012;SDS011;22580;57.670;12.006;2022-08-14T00:50:31;0.30;;;0.30;;
13012;SDS011;22580;57.670;12.006;2022-08-14T00:52:58;0.30;;;0.30;;
13012;SDS011;22580;57.670;12.006;2022-08-14T00:55:25;0.30;;;0.30;;
13012;SDS011;22580;57.670;12.006;2022-08-14T00:57:55;0.20;;;0.20;;
13012;SDS011;22580;57.670;12.006;2022-08-14T01:00:39;0.30;;;0.30;;
13012;SDS011;22580;57.670;12.006;2022-08-14T01:03:07;0.30;;;0.30;;
13012;SDS011;22580;57.670;12.006;2022-08-14T01:05:34;0.30;;;0.30;;
13012;SDS011;22580;57.670;12.006;2022-08-14T01:08:01;0.40;;;0.40;;
13012;SDS011;22580;57.670;12.006;2022-08-14T01:10:29;0.30;;;0.30;;
13012;SDS011;22580;57.670;12.006;2022-08-14T01:13:13;0.30;;;0.30;;
13012;SDS011;22580;57.670;12.006;2022-08-14T01:15:41;0.40;;;0.40;;
13012;SDS011;22580;57.670;12.006;2022-08-14T01:18:09;0.20;;;0.20;;
13012;SDS011;22580;57.670;12.006;2022-08-14T01:20:54;0.30;;;0.30;;
13012;SDS011;22580;57.670;12.006;2022-08-14T01:23:32;0.30;;;0.30;;
13012;SDS011;22580;57.670;12.006;2022-08-14T01:26:00;0.28;;;0.28;;
13012;SDS011;22580;57.670;12.006;2022-08-14T01:28:27;0.20;;;0.20;;
13012;SDS011;22580;57.670;12.006;2022-08-14T01:30:55;0.30;;;0.30;;
13012;SDS011;22580;57.670;12.006;2022-08-14T01:33:22;0.20;;;0.20;;
13012;SDS011;22580;57.670;12.006;2022-08-14T01:35:52;0.17;;;0.17;;
13012;SDS011;22580;57.670;12.006;2022-08-14T01:38:21;0.17;;;0.17;;
13012;SDS011;22580;57.670;12.006;2022-08-14T01:40:50;0.30;;;0.30;;
13012;SDS011;22580;57.670;12.006;2022-08-14T01:43:17;0.20;;;0.20;;
13012;SDS011;22580;57.670;12.006;2022-08-14T01:45:45;0.25;;;0.25;;
13012;SDS011;22580;57.670;12.006;2022-08-14T01:48:13;0.20;;;0.20;;
13012;SDS011;22580;57.670;12.006;2022-08-14T01:50:40;0.20;;;0.20;;
13012;SDS011;22580;57.670;12.006;2022-08-14T01:53:07;0.20;;;0.20;;
13012;SDS011;22580;57.670;12.006;2022-08-14T01:55:34;0.30;;;0.30;;
13012;SDS011;22580;57.670;12.006;2022-08-14T01:58:04;0.30;;;0.30;;
13012;SDS011;22580;57.670;12.006;2022-08-14T02:00:35;0.45;;;0.45;;
13012;SDS011;22580;57.670;12.006;2022-08-14T02:03:03;0.40;;;0.40;;
13012;SDS011;22580;57.670;12.006;2022-08-14T02:05:30;0.40;;;0.40;;
13012;SDS011;22580;57.670;12.006;2022-08-14T02:07:57;0.20;;;0.20;;
13012;SDS011;22580;57.670;12.006;2022-08-14T02:10:23;0.30;;;0.30;;
13012;SDS011;22580;57.670;12.006;2022-08-14T02:12:53;0.40;;;0.40;;
13012;SDS011;22580;57.670;12.006;2022-08-14T02:15:22;0.40;;;0.35;;
13012;SDS011;22580;57.670;12.006;2022-08-14T02:17:50;0.25;;;0.25;;
13012;SDS011;22580;57.670;12.006;2022-08-14T02:20:18;0.40;;;0.40;;
13012;SDS011;22580;57.670;12.006;2022-08-14T02:22:45;0.28;;;0.28;;
13012;SDS011;22580;57.670;12.006;2022-08-14T02:25:13;0.30;;;0.30;;
13012;SDS011;22580;57.670;12.006;2022-08-14T02:27:40;0.40;;;0.40;;
13012;SDS011;22580;57.670;12.006;2022-08-14T02:30:10;0.30;;;0.30;;
13012;SDS011;22580;57.670;12.006;2022-08-14T02:32:40;0.28;;;0.28;;
13012;SDS011;22580;57.670;12.006;2022-08-14T02:35:08;0.38;;;0.38;;
13012;SDS011;22580;57.670;12.006;2022-08-14T02:37:42;0.20;;;0.20;;
13012;SDS011;22580;57.670;12.006;2022-08-14T02:40:09;0.20;;;0.20;;
13012;SDS011;22580;57.670;12.006;2022-08-14T02:42:37;0.30;;;0.30;;
13012;SDS011;22580;57.670;12.006;2022-08-14T02:45:04;0.20;;;0.20;;
13012;SDS011;22580;57.670;12.006;2022-08-14T02:47:33;0.20;;;0.20;;
13012;SDS011;22580;57.670;12.006;2022-08-14T02:50:03;0.20;;;0.20;;
13012;SDS011;22580;57.670;12.006;2022-08-14T02:52:30;0.30;;;0.30;;
13012;SDS011;22580;57.670;12.006;2022-08-14T02:54:59;0.30;;;0.30;;
13012;SDS011;22580;57.670;12.006;2022-08-14T02:57:26;0.35;;;0.35;;
13012;SDS011;22580;57.670;12.006;2022-08-14T02:59:53;0.40;;;0.40;;
13012;SDS011;22580;57.670;12.006;2022-08-14T03:02:21;0.40;;;0.40;;
13012;SDS011;22580;57.670;12.006;2022-08-14T03:04:48;0.20;;;0.20;;
13012;SDS011;22580;57.670;12.006;2022-08-14T03:07:16;0.20;;;0.20;;
13012;SDS011;22580;57.670;12.006;2022-08-14T03:09:44;0.20;;;0.20;;
13012;SDS011;22580;57.670;12.006;2022-08-14T03:12:11;0.22;;;0.22;;
13012;SDS011;22580;57.670;12.006;2022-08-14T03:14:37;0.22;;;0.22;;
13012;SDS011;22580;57.670;12.006;2022-08-14T03:17:08;0.20;;;0.20;;
13012;SDS011;22580;57.670;12.006;2022-08-14T03:19:35;0.20;;;0.20;;
13012;SDS011;22580;57.670;12.006;2022-08-14T03:22:02;0.30;;;0.30;;
13012;SDS011;22580;57.670;12.006;2022-08-14T03:24:30;0.30;;;0.30;;
13012;SDS011;22580;57.670;12.006;2022-08-14T03:26:57;0.30;;;0.30;;
13012;SDS011;22580;57.670;12.006;2022-08-14T03:29:25;0.20;;;0.20;;
13012;SDS011;22580;57.670;12.006;2022-08-14T03:31:52;0.20;;;0.20;;
13012;SDS011;22580;57.670;12.006;2022-08-14T03:34:19;0.20;;;0.20;;
13012;SDS011;22580;57.670;12.006;2022-08-14T03:36:47;0.13;;;0.13;;
13012;SDS011;22580;57.670;12.006;2022-08-14T03:39:18;0.25;;;0.25;;
13012;SDS011;22580;57.670;12.006;2022-08-14T03:41:47;0.20;;;0.20;;
13012;SDS011;22580;57.670;12.006;2022-08-14T03:44:14;0.30;;;0.30;;
13012;SDS011;22580;57.670;12.006;2022-08-14T03:46:41;0.17;;;0.17;;
13012;SDS011;22580;57.670;12.006;2022-08-14T03:49:08;0.20;;;0.20;;
13012;SDS011;22580;57.670;12.006;2022-08-14T03:51:35;0.30;;;0.30;;
13012;SDS011;22580;57.670;12.006;2022-08-14T03:54:03;0.28;;;0.28;;
13012;SDS011;22580;57.670;12.006;2022-08-14T03:56:32;0.10;;;0.10;;
13012;SDS011;22580;57.670;12.006;2022-08-14T03:59:05;0.20;;;0.20;;
13012;SDS011;22580;57.670;12.006;2022-08-14T04:01:37;0.20;;;0.20;;
13012;SDS011;22580;57.670;12.006;2022-08-14T04:04:05;0.22;;;0.22;;
13012;SDS011;22580;57.670;12.006;2022-08-14T04:06:34;0.22;;;0.22;;
13012;SDS011;22580;57.670;12.006;2022-08-14T04:09:02;0.20;;;0.20;;
13012;SDS011;22580;57.670;12.006;2022-08-14T04:11:31;0.10;;;0.10;;
13012;SDS011;22580;57.670;12.006;2022-08-14T04:13:59;0.20;;;0.20;;
13012;SDS011;22580;57.670;12.006;2022-08-14T04:16:27;0.20;;;0.20;;
13012;SDS011;22580;57.670;12.006;2022-08-14T04:18:55;0.15;;;0.15;;
13012;SDS011;22580;57.670;12.006;2022-08-14T04:21:24;0.20;;;0.20;;
13012;SDS011;22580;57.670;12.006;2022-08-14T04:23:54;0.13;;;0.13;;
13012;SDS011;22580;57.670;12.006;2022-08-14T04:26:22;0.20;;;0.20;;
13012;SDS011;22580;57.670;12.006;2022-08-14T04:28:51;0.30;;;0.30;;
13012;SDS011;22580;57.670;12.006;2022-08-14T04:31:19;0.30;;;0.30;;
13012;SDS011;22580;57.670;12.006;2022-08-14T04:33:48;0.20;;;0.20;;
13012;SDS011;22580;57.670;12.006;2022-08-14T04:36:16;0.28;;;0.28;;
13012;SDS011;22580;57.670;12.006;2022-08-14T04:38:45;0.30;;;0.30;;
13012;SDS011;22580;57.670;12.006;2022-08-14T04:41:41;0.30;;;0.30;;
13012;SDS011;22580;57.670;12.006;2022-08-14T04:44:25;0.20;;;0.20;;
13012;SDS011;22580;57.670;12.006;2022-08-14T04:46:52;0.30;;;0.30;;
13012;SDS011;22580;57.670;12.006;2022-08-14T04:49:37;0.20;;;0.20;;
13012;SDS011;22580;57.670;12.006;2022-08-14T04:52:06;0.22;;;0.22;;
13012;SDS011;22580;57.670;12.006;2022-08-14T04:54:33;0.20;;;0.20;;
13012;SDS011;22580;57.670;12.006;2022-08-14T04:56:59;0.28;;;0.28;;
13012;SDS011;22580;57.670;12.006;2022-08-14T04:59:26;0.20;;;0.20;;
13012;SDS011;22580;57.670;12.006;2022-08-14T05:01:55;0.13;;;0.13;;
13012;SDS011;22580;57.670;12.006;2022-08-14T05:04:22;0.20;;;0.20;;
13012;SDS011;22580;57.670;12.006;2022-08-14T05:06:51;0.20;;;0.20;;
13012;SDS011;22580;57.670;12.006;2022-08-14T05:09:19;0.10;;;0.10;;
13012;SDS011;22580;57.670;12.006;2022-08-14T05:11:46;0.10;;;0.10;;
13012;SDS011;22580;57.670;12.006;2022-08-14T05:14:14;0.20;;;0.20;;
13012;SDS011;22580;57.670;12.006;2022-08-14T05:16:42;0.10;;;0.10;;
13012;SDS011;22580;57.670;12.006;2022-08-14T05:19:10;0.10;;;0.10;;
13012;SDS011;22580;57.670;12.006;2022-08-14T05:21:38;0.20;;;0.20;;
13012;SDS011;22580;57.670;12.006;2022-08-14T05:24:06;0.13;;;0.13;;
13012;SDS011;22580;57.670;12.006;2022-08-14T05:26:35;0.20;;;0.20;;
13012;SDS011;22580;57.670;12.006;2022-08-14T05:29:05;0.30;;;0.30;;
13012;SDS011;22580;57.670;12.006;2022-08-14T05:31:33;0.25;;;0.25;;
13012;SDS011;22580;57.670;12.006;2022-08-14T05:34:04;0.10;;;0.10;;
13012;SDS011;22580;57.670;12.006;2022-08-14T05:36:31;0.20;;;0.20;;
13012;SDS011;22580;57.670;12.006;2022-08-14T05:38:58;0.30;;;0.30;;
13012;SDS011;22580;57.670;12.006;2022-08-14T05:41:29;0.30;;;0.30;;
13012;SDS011;22580;57.670;12.006;2022-08-14T05:43:57;0.20;;;0.20;;
13012;SDS011;22580;57.670;12.006;2022-08-14T05:46:24;0.20;;;0.20;;
13012;SDS011;22580;57.670;12.006;2022-08-14T05:48:52;0.30;;;0.30;;
13012;SDS011;22580;57.670;12.006;2022-08-14T05:51:20;0.32;;;0.32;;
13012;SDS011;22580;57.670;12.006;2022-08-14T05:53:48;0.40;;;0.40;;
13012;SDS011;22580;57.670;12.006;2022-08-14T05:56:15;0.30;;;0.30;;
13012;SDS011;22580;57.670;12.006;2022-08-14T05:58:43;0.40;;;0.40;;
13012;SDS011;22580;57.670;12.006;2022-08-14T06:01:10;0.50;;;0.50;;
13012;SDS011;22580;57.670;12.006;2022-08-14T06:03:37;0.32;;;0.32;;
13012;SDS011;22580;57.670;12.006;2022-08-14T06:06:04;0.50;;;0.50;;
13012;SDS011;22580;57.670;12.006;2022-08-14T06:08:31;0.40;;;0.40;;
13012;SDS011;22580;57.670;12.006;2022-08-14T06:11:02;0.60;;;0.60;;
13012;SDS011;22580;57.670;12.006;2022-08-14T06:13:31;0.70;;;0.70;;
13012;SDS011;22580;57.670;12.006;2022-08-14T06:16:00;0.40;;;0.40;;
13012;SDS011;22580;57.670;12.006;2022-08-14T06:18:27;0.60;;;0.60;;
13012;SDS011;22580;57.670;12.006;2022-08-14T06:20:55;0.55;;;0.55;;
13012;SDS011;22580;57.670;12.006;2022-08-14T06:23:22;0.60;;;0.60;;
13012;SDS011;22580;57.670;12.006;2022-08-14T06:25:48;0.70;;;0.70;;
13012;SDS011;22580;57.670;12.006;2022-08-14T06:28:16;0.60;;;0.60;;
13012;SDS011;22580;57.670;12.006;2022-08-14T06:30:43;0.68;;;0.68;;
13012;SDS011;22580;57.670;12.006;2022-08-14T06:33:11;0.90;;;0.90;;
13012;SDS011;22580;57.670;12.006;2022-08-14T06:35:38;0.52;;;0.52;;
13012;SDS011;22580;57.670;12.006;2022-08-14T06:38:05;0.60;;;0.60;;
13012;SDS011;22580;57.670;12.006;2022-08-14T06:40:33;0.60;;;0.60;;
13012;SDS011;22580;57.670;12.006;2022-08-14T06:43:04;0.60;;;0.60;;
13012;SDS011;22580;57.670;12.006;2022-08-14T06:45:36;0.90;;;0.90;;
13012;SDS011;22580;57.670;12.006;2022-08-14T06:48:21;1.10;;;1.10;;
13012;SDS011;22580;57.670;12.006;2022-08-14T06:50:50;1.25;;;1.10;;
13012;SDS011;22580;57.670;12.006;2022-08-14T06:53:17;1.10;;;1.10;;
13012;SDS011;22580;57.670;12.006;2022-08-14T06:55:45;0.90;;;0.90;;
13012;SDS011;22580;57.670;12.006;2022-08-14T06:58:24;1.00;;;1.00;;
13012;SDS011;22580;57.670;12.006;2022-08-14T07:00:51;0.93;;;0.93;;
13012;SDS011;22580;57.670;12.006;2022-08-14T07:03:43;0.82;;;0.82;;
13012;SDS011;22580;57.670;12.006;2022-08-14T07:06:28;1.00;;;1.00;;
13012;SDS011;22580;57.670;12.006;2022-08-14T07:08:56;1.10;;;1.10;;
13012;SDS011;22580;57.670;12.006;2022-08-14T07:11:22;1.23;;;1.23;;
13012;SDS011;22580;57.670;12.006;2022-08-14T07:13:49;1.27;;;1.27;;
13012;SDS011;22580;57.670;12.006;2022-08-14T07:16:16;1.20;;;1.20;;
13012;SDS011;22580;57.670;12.006;2022-08-14T07:18:44;1.20;;;1.20;;
13012;SDS011;22580;57.670;12.006;2022-08-14T07:21:11;1.00;;;1.00;;
13012;SDS011;22580;57.670;12.006;2022-08-14T07:23:39;1.05;;;1.05;;
13012;SDS011;22580;57.670;12.006;2022-08-14T07:26:07;0.90;;;0.90;;
13012;SDS011;22580;57.670;12.006;2022-08-14T07:28:35;0.93;;;0.93;;
13012;SDS011;22580;57.670;12.006;2022-08-14T07:31:07;1.02;;;1.02;;
13012;SDS011;22580;57.670;12.006;2022-08-14T07:33:36;0.90;;;0.90;;
13012;SDS011;22580;57.670;12.006;2022-08-14T07:36:07;0.90;;;0.90;;
13012;SDS011;22580;57.670;12.006;2022-08-14T07:38:35;0.80;;;0.80;;
13012;SDS011;22580;57.670;12.006;2022-08-14T07:41:05;0.93;;;0.93;;
13012;SDS011;22580;57.670;12.006;2022-08-14T07:43:32;0.90;;;0.90;;
13012;SDS011;22580;57.670;12.006;2022-08-14T07:45:59;0.80;;;0.80;;
13012;SDS011;22580;57.670;12.006;2022-08-14T07:48:26;1.00;;;1.00;;
13012;SDS011;22580;57.670;12.006;2022-08-14T07:50:54;1.20;;;1.20;;
13012;SDS011;22580;57.670;12.006;2022-08-14T07:53:23;1.10;;;1.10;;
13012;SDS011;22580;57.670;12.006;2022-08-14T07:55:50;1.05;;;1.05;;
13012;SDS011;22580;57.670;12.006;2022-08-14T07:58:17;1.33;;;1.33;;
13012;SDS011;22580;57.670;12.006;2022-08-14T08:00:44;1.27;;;1.23;;
13012;SDS011;22580;57.670;12.006;2022-08-14T08:03:11;1.80;;;1.70;;
13012;SDS011;22580;57.670;12.006;2022-08-14T08:05:40;1.40;;;1.40;;
13012;SDS011;22580;57.670;12.006;2022-08-14T08:08:07;1.20;;;1.20;;
13012;SDS011;22580;57.670;12.006;2022-08-14T08:10:37;1.20;;;1.20;;
13012;SDS011;22580;57.670;12.006;2022-08-14T08:13:06;1.30;;;1.30;;
13012;SDS011;22580;57.670;12.006;2022-08-14T08:15:35;0.90;;;0.90;;
13012;SDS011;22580;57.670;12.006;2022-08-14T08:18:03;1.17;;;1.17;;
13012;SDS011;22580;57.670;12.006;2022-08-14T08:20:32;0.95;;;0.95;;
13012;SDS011;22580;57.670;12.006;2022-08-14T08:23:00;1.05;;;1.05;;
13012;SDS011;22580;57.670;12.006;2022-08-14T08:25:28;1.05;;;1.05;;
13012;SDS011;22580;57.670;12.006;2022-08-14T08:28:00;0.75;;;0.75;;
13012;SDS011;22580;57.670;12.006;2022-08-14T08:30:28;1.27;;;1.27;;
13012;SDS011;22580;57.670;12.006;2022-08-14T08:32:58;1.20;;;1.20;;
13012;SDS011;22580;57.670;12.006;2022-08-14T08:35:27;1.30;;;1.30;;
13012;SDS011;22580;57.670;12.006;2022-08-14T08:37:59;0.90;;;0.90;;
13012;SDS011;22580;57.670;12.006;2022-08-14T08:40:29;1.05;;;1.05;;
13012;SDS011;22580;57.670;12.006;2022-08-14T08:43:01;1.00;;;1.00;;
13012;SDS011;22580;57.670;12.006;2022-08-14T08:45:31;1.30;;;1.20;;
13012;SDS011;22580;57.670;12.006;2022-08-14T08:47:59;1.00;;;1.00;;
13012;SDS011;22580;57.670;12.006;2022-08-14T08:50:28;0.80;;;0.80;;
13012;SDS011;22580;57.670;12.006;2022-08-14T08:52:58;1.20;;;1.20;;
13012;SDS011;22580;57.670;12.006;2022-08-14T08:55:31;1.13;;;1.13;;
13012;SDS011;22580;57.670;12.006;2022-08-14T08:58:02;0.95;;;0.95;;
13012;SDS011;22580;57.670;12.006;2022-08-14T09:00:31;1.17;;;0.90;;
13012;SDS011;22580;57.670;12.006;2022-08-14T09:03:01;0.80;;;0.80;;
13012;SDS011;22580;57.670;12.006;2022-08-14T09:05:31;0.88;;;0.88;;
13012;SDS011;22580;57.670;12.006;2022-08-14T09:08:13;1.08;;;1.08;;
13012;SDS011;22580;57.670;12.006;2022-08-14T09:10:42;1.00;;;1.00;;
13012;SDS011;22580;57.670;12.006;2022-08-14T09:13:11;0.90;;;0.90;;
13012;SDS011;22580;57.670;12.006;2022-08-14T09:15:40;1.20;;;1.20;;
13012;SDS011;22580;57.670;12.006;2022-08-14T09:18:11;0.80;;;0.80;;
13012;SDS011;22580;57.670;12.006;2022-08-14T09:20:39;0.98;;;0.98;;
13012;SDS011;22580;57.670;12.006;2022-08-14T09:23:11;1.00;;;1.00;;
13012;SDS011;22580;57.670;12.006;2022-08-14T09:25:41;1.00;;;1.00;;
13012;SDS011;22580;57.670;12.006;2022-08-14T09:28:14;0.70;;;0.70;;
13012;SDS011;22580;57.670;12.006;2022-08-14T09:30:45;0.70;;;0.70;;
13012;SDS011;22580;57.670;12.006;2022-08-14T09:33:21;0.80;;;0.80;;
13012;SDS011;22580;57.670;12.006;2022-08-14T09:36:00;0.90;;;0.90;;
13012;SDS011;22580;57.670;12.006;2022-08-14T09:38:42;1.00;;;1.00;;
13012;SDS011;22580;57.670;12.006;2022-08-14T09:41:21;1.05;;;1.05;;
13012;SDS011;22580;57.670;12.006;2022-08-14T09:44:05;0.88;;;0.88;;
13012;SDS011;22580;57.670;12.006;2022-08-14T09:46:39;1.10;;;1.10;;
13012;SDS011;22580;57.670;12.006;2022-08-14T09:49:06;0.90;;;0.90;;
13012;SDS011;22580;57.670;12.006;2022-08-14T09:51:35;1.08;;;1.08;;
13012;SDS011;22580;57.670;12.006;2022-08-14T09:54:06;0.93;;;0.93;;
13012;SDS011;22580;57.670;12.006;2022-08-14T09:56:43;0.80;;;0.80;;
13012;SDS011;22580;57.670;12.006;2022-08-14T09:59:14;0.90;;;0.90;;
13012;SDS011;22580;57.670;12.006;2022-08-14T10:01:46;0.75;;;0.75;;
13012;SDS011;22580;57.670;12.006;2022-08-14T10:04:16;0.60;;;0.60;;
13012;SDS011;22580;57.670;12.006;2022-08-14T10:06:45;0.70;;;0.70;;
13012;SDS011;22580;57.670;12.006;2022-08-14T10:09:12;0.80;;;0.80;;
13012;SDS011;22580;57.670;12.006;2022-08-14T10:11:40;0.65;;;0.65;;
13012;SDS011;22580;57.670;12.006;2022-08-14T10:14:12;0.70;;;0.70;;
13012;SDS011;22580;57.670;12.006;2022-08-14T10:16:42;0.55;;;0.55;;
13012;SDS011;22580;57.670;12.006;2022-08-14T10:19:11;0.73;;;0.73;;
13012;SDS011;22580;57.670;12.006;2022-08-14T10:21:42;0.70;;;0.70;;
13012;SDS011;22580;57.670;12.006;2022-08-14T10:24:10;0.70;;;0.70;;
13012;SDS011;22580;57.670;12.006;2022-08-14T10:26:53;0.90;;;0.90;;
13012;SDS011;22580;57.670;12.006;2022-08-14T10:29:30;0.60;;;0.60;;
13012;SDS011;22580;57.670;12.006;2022-08-14T10:31:58;0.70;;;0.70;;
13012;SDS011;22580;57.670;12.006;2022-08-14T10:34:29;0.73;;;0.73;;
13012;SDS011;22580;57.670;12.006;2022-08-14T10:37:01;0.60;;;0.60;;
13012;SDS011;22580;57.670;12.006;2022-08-14T10:39:29;0.57;;;0.57;;
13012;SDS011;22580;57.670;12.006;2022-08-14T10:41:59;0.60;;;0.60;;
13012;SDS011;22580;57.670;12.006;2022-08-14T10:44:32;0.65;;;0.65;;
13012;SDS011;22580;57.670;12.006;2022-08-14T10:47:04;0.57;;;0.57;;
13012;SDS011;22580;57.670;12.006;2022-08-14T10:49:35;0.50;;;0.50;;
13012;SDS011;22580;57.670;12.006;2022-08-14T10:52:03;0.40;;;0.40;;
13012;SDS011;22580;57.670;12.006;2022-08-14T10:54:36;0.50;;;0.50;;
13012;SDS011;22580;57.670;12.006;2022-08-14T10:57:14;0.40;;;0.40;;
13012;SDS011;22580;57.670;12.006;2022-08-14T10:59:46;0.35;;;0.35;;
13012;SDS011;22580;57.670;12.006;2022-08-14T11:02:18;0.50;;;0.50;;
13012;SDS011;22580;57.670;12.006;2022-08-14T11:04:59;0.70;;;0.70;;
13012;SDS011;22580;57.670;12.006;2022-08-14T11:07:32;0.70;;;0.70;;
13012;SDS011;22580;57.670;12.006;2022-08-14T11:10:00;0.80;;;0.80;;
13012;SDS011;22580;57.670;12.006;2022-08-14T11:12:37;0.60;;;0.60;;
13012;SDS011;22580;57.670;12.006;2022-08-14T11:15:08;0.60;;;0.60;;
13012;SDS011;22580;57.670;12.006;2022-08-14T11:17:35;0.60;;;0.60;;
13012;SDS011;22580;57.670;12.006;2022-08-14T11:20:04;0.68;;;0.68;;
13012;SDS011;22580;57.670;12.006;2022-08-14T11:22:32;0.60;;;0.60;;
13012;SDS011;22580;57.670;12.006;2022-08-14T11:25:02;0.70;;;0.70;;
13012;SDS011;22580;57.670;12.006;2022-08-14T11:27:32;0.55;;;0.55;;
13012;SDS011;22580;57.670;12.006;2022-08-14T11:30:00;0.60;;;0.60;;
13012;SDS011;22580;57.670;12.006;2022-08-14T11:32:32;0.50;;;0.50;;
13012;SDS011;22580;57.670;12.006;2022-08-14T11:34:59;0.60;;;0.60;;
13012;SDS011;22580;57.670;12.006;2022-08-14T11:37:26;0.60;;;0.60;;
13012;SDS011;22580;57.670;12.006;2022-08-14T11:39:54;0.60;;;0.60;;
13012;SDS011;22580;57.670;12.006;2022-08-14T11:42:21;0.40;;;0.40;;
13012;SDS011;22580;57.670;12.006;2022-08-14T11:44:49;0.50;;;0.50;;
13012;SDS011;22580;57.670;12.006;2022-08-14T11:47:17;0.60;;;0.60;;
13012;SDS011;22580;57.670;12.006;2022-08-14T11:49:49;0.73;;;0.73;;
13012;SDS011;22580;57.670;12.006;2022-08-14T11:52:17;1.17;;;1.10;;
13012;SDS011;22580;57.670;12.006;2022-08-14T11:54:44;1.52;;;1.50;;
13012;SDS011;22580;57.670;12.006;2022-08-14T11:57:22;1.13;;;1.10;;
13012;SDS011;22580;57.670;12.006;2022-08-14T11:59:58;1.10;;;1.10;;
13012;SDS011;22580;57.670;12.006;2022-08-14T12:02:26;1.10;;;1.10;;
13012;SDS011;22580;57.670;12.006;2022-08-14T12:04:54;1.20;;;1.20;;
13012;SDS011;22580;57.670;12.006;2022-08-14T12:07:22;1.42;;;1.42;;
13012;SDS011;22580;57.670;12.006;2022-08-14T12:09:51;1.50;;;1.40;;
13012;SDS011;22580;57.670;12.006;2022-08-14T12:12:20;0.98;;;0.98;;
13012;SDS011;22580;57.670;12.006;2022-08-14T12:14:49;1.35;;;1.35;;
13012;SDS011;22580;57.670;12.006;2022-08-14T12:17:22;1.00;;;1.00;;
13012;SDS011;22580;57.670;12.006;2022-08-14T12:19:51;1.20;;;1.20;;
13012;SDS011;22580;57.670;12.006;2022-08-14T12:22:21;1.20;;;1.20;;
13012;SDS011;22580;57.670;12.006;2022-08-14T12:24:58;1.20;;;1.20;;
13012;SDS011;22580;57.670;12.006;2022-08-14T12:27:33;1.50;;;1.50;;
13012;SDS011;22580;57.670;12.006;2022-08-14T12:30:11;1.70;;;1.70;;
13012;SDS011;22580;57.670;12.006;2022-08-14T12:32:39;1.40;;;1.40;;
13012;SDS011;22580;57.670;12.006;2022-08-14T12:35:08;2.00;;;1.90;;
13012;SDS011;22580;57.670;12.006;2022-08-14T12:37:36;1.88;;;1.77;;
13012;SDS011;22580;57.670;12.006;2022-08-14T12:40:10;1.33;;;1.33;;
13012;SDS011;22580;57.670;12.006;2022-08-14T12:42:37;1.48;;;1.48;;
13012;SDS011;22580;57.670;12.006;2022-08-14T12:45:05;1.40;;;1.40;;
13012;SDS011;22580;57.670;12.006;2022-08-14T12:47:36;1.60;;;1.50;;
13012;SDS011;22580;57.670;12.006;2022-08-14T12:50:03;1.55;;;1.55;;
13012;SDS011;22580;57.670;12.006;2022-08-14T12:52:31;1.58;;;1.48;;
13012;SDS011;22580;57.670;12.006;2022-08-14T12:55:03;1.40;;;1.40;;
13012;SDS011;22580;57.670;12.006;2022-08-14T12:57:32;1.50;;;1.40;;
13012;SDS011;22580;57.670;12.006;2022-08-14T13:00:04;1.20;;;1.20;;
13012;SDS011;22580;57.670;12.006;2022-08-14T13:02:35;1.30;;;1.30;;
13012;SDS011;22580;57.670;12.006;2022-08-14T13:05:05;1.10;;;1.10;;
13012;SDS011;22580;57.670;12.006;2022-08-14T13:07:35;1.23;;;1.20;;
13012;SDS011;22580;57.670;12.006;2022-08-14T13:10:06;1.55;;;1.50;;
13012;SDS011;22580;57.670;12.006;2022-08-14T13:12:35;1.27;;;1.27;;
13012;SDS011;22580;57.670;12.006;2022-08-14T13:15:04;1.30;;;1.30;;
13012;SDS011;22580;57.670;12.006;2022-08-14T13:17:33;1.75;;;1.65;;
13012;SDS011;22580;57.670;12.006;2022-08-14T13:20:09;1.63;;;1.60;;
13012;SDS011;22580;57.670;12.006;2022-08-14T13:22:38;1.80;;;1.58;;
13012;SDS011;22580;57.670;12.006;2022-08-14T13:25:10;1.10;;;1.10;;
13012;SDS011;22580;57.670;12.006;2022-08-14T13:27:38;1.10;;;1.10;;
13012;SDS011;22580;57.670;12.006;2022-08-14T13:30:08;1.40;;;1.30;;
13012;SDS011;22580;57.670;12.006;2022-08-14T13:32:37;1.40;;;1.40;;
13012;SDS011;22580;57.670;12.006;2022-08-14T13:35:09;1.10;;;1.10;;
13012;SDS011;22580;57.670;12.006;2022-08-14T13:37:36;1.20;;;1.20;;
13012;SDS011;22580;57.670;12.006;2022-08-14T13:40:03;1.20;;;1.20;;
13012;SDS011;22580;57.670;12.006;2022-08-14T13:42:32;1.33;;;1.33;;
13012;SDS011;22580;57.670;12.006;2022-08-14T13:45:01;1.25;;;1.25;;
13012;SDS011;22580;57.670;12.006;2022-08-14T13:47:31;1.27;;;1.17;;
13012;SDS011;22580;57.670;12.006;2022-08-14T13:50:00;1.00;;;1.00;;
13012;SDS011;22580;57.670;12.006;2022-08-14T13:52:30;1.30;;;1.20;;
13012;SDS011;22580;57.670;12.006;2022-08-14T13:55:05;1.00;;;1.00;;
13012;SDS011;22580;57.670;12.006;2022-08-14T13:57:39;1.38;;;1.33;;
13012;SDS011;22580;57.670;12.006;2022-08-14T14:00:09;1.30;;;1.30;;
13012;SDS011;22580;57.670;12.006;2022-08-14T14:02:37;1.20;;;1.20;;
13012;SDS011;22580;57.670;12.006;2022-08-14T14:05:08;1.38;;;1.27;;
13012;SDS011;22580;57.670;12.006;2022-08-14T14:07:38;1.30;;;1.30;;
13012;SDS011;22580;57.670;12.006;2022-08-14T14:10:12;1.20;;;1.20;;
13012;SDS011;22580;57.670;12.006;2022-08-14T14:12:41;1.58;;;1.48;;
13012;SDS011;22580;57.670;12.006;2022-08-14T14:15:09;1.20;;;1.20;;
13012;SDS011;22580;57.670;12.006;2022-08-14T14:17:39;1.20;;;1.20;;
13012;SDS011;22580;57.670;12.006;2022-08-14T14:20:07;0.82;;;0.82;;
13012;SDS011;22580;57.670;12.006;2022-08-14T14:22:39;0.90;;;0.90;;
13012;SDS011;22580;57.670;12.006;2022-08-14T14:25:08;0.80;;;0.80;;
13012;SDS011;22580;57.670;12.006;2022-08-14T14:27:35;0.85;;;0.85;;
13012;SDS011;22580;57.670;12.006;2022-08-14T14:30:05;0.98;;;0.98;;
13012;SDS011;22580;57.670;12.006;2022-08-14T14:32:33;0.93;;;0.93;;
13012;SDS011;22580;57.670;12.006;2022-08-14T14:35:08;1.00;;;1.00;;
13012;SDS011;22580;57.670;12.006;2022-08-14T14:37:37;1.05;;;1.05;;
13012;SDS011;22580;57.670;12.006;2022-08-14T14:40:06;1.00;;;1.00;;
13012;SDS011;22580;57.670;12.006;2022-08-14T14:42:34;1.10;;;1.10;;
13012;SDS011;22580;57.670;12.006;2022-08-14T14:45:12;0.95;;;0.95;;
13012;SDS011;22580;57.670;12.006;2022-08-14T14:47:42;1.15;;;1.15;;